< < Back
Terminal Aerodrome Forecast


Current Version              Previous Versions:   1  2  3  4  5  6  7  8  9  

Terminal Aerodrome Forecast

862
FTUS42 KILM 222300
TAFILM
TAF
KILM 222322Z 2300/2324 21012KT P6SM VCSH SCT050 BKN100
      TEMPO 2300/2304 21015G20KT P6SM -RA SCT030 BKN050
     FM230600 31009KT P6SM FEW050
     FM231300 34012G18KT P6SM SKC
     FM231800 30014G20KT P6SM SKC=



Latest METAR

911
SAUS70 KWBC 232300 RRO
MTRILM
METAR KILM 232253Z AUTO 36009KT 10SM CLR 24/02 A2983 RMK AO2 SLP099
T02390022


USA.gov is the U.S. government's official web portal to all federal, state and local government web resources and services.